Time;durP1;ratioP1;P1;durP2;ratioP2;P2;SDS_P1;SDS_P2;PMS_P1;PMS_P2;Temp;Humidity;BMP_temperature;BMP_pressure;BME280_temperature;BME280_humidity;BME280_pressure;Samples;Min_cycle;Max_cycle;Signal;HPM_P1;HPM_P2
2022/06/24 00:02:03;;;;;;;12.55;3.08;;;;;;;;;;6181275;28;20046;-73
2022/06/24 00:05:09;;;;;;;15.45;3.00;;;;;;;;;;6183471;28;20042;-73
2022/06/24 00:08:10;;;;;;;12.10;2.80;;;;;;;;;;6179452;28;20132;-73
2022/06/24 00:11:13;;;;;;;12.85;3.47;;;;;;;;;;6186761;28;20038;-72
2022/06/24 00:14:16;;;;;;;10.75;2.97;;;;;;;;;;6168686;28;20274;-73
2022/06/24 00:17:19;;;;;;;14.52;3.13;;;;;;;;;;6169871;28;20069;-73
2022/06/24 00:20:21;;;;;;;11.68;2.95;;;;;;;;;;6152709;28;20245;-73
2022/06/24 00:23:24;;;;;;;11.10;3.35;;;;;;;;;;6158095;28;20046;-73
2022/06/24 00:26:39;;;;;;;15.65;3.28;;;;;;;;;;6159155;28;20051;-73
2022/06/24 00:29:40;;;;;;;14.18;3.38;;;;;;;;;;6163167;28;20053;-73
2022/06/24 00:32:43;;;;;;;13.77;3.10;;;;;;;;;;6180462;28;20053;-73
2022/06/24 00:35:49;;;;;;;11.20;3.17;;;;;;;;;;6177679;28;20050;-73
2022/06/24 00:38:52;;;;;;;12.05;3.58;;;;;;;;;;6175397;28;20051;-73
2022/06/24 00:41:55;;;;;;;12.25;3.03;;;;;;;;;;6178602;28;20047;-73
2022/06/24 00:45:26;;;;;;;12.75;2.80;;;;;;;;;;6185473;28;20329;-73
2022/06/24 00:48:29;;;;;;;14.07;4.50;;;;;;;;;;6179459;28;20061;-73
2022/06/24 00:51:33;;;;;;;12.07;3.35;;;;;;;;;;6182831;28;20050;-73
2022/06/24 00:54:35;;;;;;;15.77;3.63;;;;;;;;;;6180716;28;20396;-72
2022/06/24 00:57:39;;;;;;;12.10;2.90;;;;;;;;;;6183227;28;20055;-72
2022/06/24 01:00:43;;;;;;;15.20;3.67;;;;;;;;;;6179589;28;20058;-74
2022/06/24 01:03:45;;;;;;;12.70;3.08;;;;;;;;;;6177719;28;20066;-73
2022/06/24 01:06:47;;;;;;;9.60;2.78;;;;;;;;;;6180572;28;20088;-73
2022/06/24 01:09:48;;;;;;;10.38;3.53;;;;;;;;;;6180766;28;20051;-73
2022/06/24 01:12:52;;;;;;;10.20;3.08;;;;;;;;;;6176405;28;20058;-73
2022/06/24 01:15:53;;;;;;;;;;;;;;;;;;6179601;28;20123;-74
2022/06/24 01:18:56;;;;;;;13.35;3.35;;;;;;;;;;6179979;28;19918;-73
2022/06/24 01:21:59;;;;;;;11.93;2.58;;;;;;;;;;6181530;28;20062;-73
2022/06/24 01:25:00;;;;;;;10.75;2.78;;;;;;;;;;6160261;28;20055;-74
2022/06/24 01:28:02;;;;;;;9.18;2.80;;;;;;;;;;6160042;28;20055;-73
2022/06/24 01:31:04;;;;;;;9.75;3.05;;;;;;;;;;6160872;28;20063;-73
2022/06/24 01:34:05;;;;;;;10.77;3.42;;;;;;;;;;6166552;28;20047;-74
2022/06/24 01:37:09;;;;;;;14.32;3.08;;;;;;;;;;6165583;28;20057;-73
2022/06/24 01:40:11;;;;;;;11.00;3.92;;;;;;;;;;6162691;28;20062;-73
2022/06/24 01:43:13;;;;;;;7.70;2.70;;;;;;;;;;6162239;28;20392;-74
2022/06/24 01:46:15;;;;;;;14.77;2.45;;;;;;;;;;6163213;28;20051;-73
2022/06/24 01:49:17;;;;;;;9.00;3.03;;;;;;;;;;6160362;28;20051;-73
2022/06/24 01:52:20;;;;;;;12.63;3.25;;;;;;;;;;6161266;28;20278;-73
2022/06/24 01:55:21;;;;;;;17.27;4.68;;;;;;;;;;6162785;28;20329;-73
2022/06/24 01:58:23;;;;;;;11.98;4.57;;;;;;;;;;6160884;28;20047;-72
2022/06/24 02:01:25;;;;;;;12.25;3.17;;;;;;;;;;6166258;28;20061;-73
2022/06/24 02:04:27;;;;;;;8.93;3.22;;;;;;;;;;6164184;28;20110;-73
2022/06/24 02:07:30;;;;;;;15.63;2.85;;;;;;;;;;6163373;28;20048;-74
2022/06/24 02:13:51;;;;;;;11.38;2.80;;;;;;;;;;6162546;28;20059;-74
2022/06/24 02:16:53;;;;;;;11.18;2.33;;;;;;;;;;6159405;28;20066;-73
2022/06/24 02:19:54;;;;;;;14.10;3.00;;;;;;;;;;6159146;28;20103;-73
2022/06/24 02:22:57;;;;;;;11.18;3.00;;;;;;;;;;6163999;28;20114;-73
2022/06/24 02:26:00;;;;;;;12.02;3.00;;;;;;;;;;6162013;28;20070;-74
2022/06/24 02:29:01;;;;;;;15.88;3.67;;;;;;;;;;6162340;28;20051;-73
2022/06/24 02:32:03;;;;;;;11.25;3.30;;;;;;;;;;6160039;28;20262;-74
2022/06/24 02:35:06;;;;;;;12.02;2.78;;;;;;;;;;6162554;28;20055;-74
2022/06/24 02:38:09;;;;;;;10.32;2.80;;;;;;;;;;6161207;28;20059;-76
2022/06/24 02:41:10;;;;;;;19.90;3.60;;;;;;;;;;6160888;28;20110;-74
2022/06/24 02:44:12;;;;;;;10.52;2.60;;;;;;;;;;6175738;28;20261;-75
2022/06/24 02:47:14;;;;;;;17.77;3.03;;;;;;;;;;6183068;28;20054;-74
2022/06/24 02:50:15;;;;;;;9.63;3.33;;;;;;;;;;6183304;28;20046;-74
2022/06/24 02:53:19;;;;;;;16.33;3.35;;;;;;;;;;6185679;28;20281;-74
2022/06/24 02:56:21;;;;;;;13.30;3.17;;;;;;;;;;6187757;28;20055;-74
2022/06/24 02:59:23;;;;;;;18.13;3.70;;;;;;;;;;6185936;28;20049;-75
2022/06/24 03:02:24;;;;;;;13.63;3.47;;;;;;;;;;6182587;28;20337;-76
2022/06/24 03:05:26;;;;;;;12.15;3.00;;;;;;;;;;6186834;28;20051;-76
2022/06/24 03:08:30;;;;;;;11.95;2.60;;;;;;;;;;6182150;28;20120;-75
2022/06/24 03:11:31;;;;;;;8.77;2.92;;;;;;;;;;6184266;28;20062;-75
2022/06/24 03:14:33;;;;;;;11.02;2.95;;;;;;;;;;6184883;28;20043;-75
2022/06/24 03:17:35;;;;;;;9.98;2.60;;;;;;;;;;6181170;28;20057;-75
2022/06/24 03:20:37;;;;;;;17.98;3.58;;;;;;;;;;6183579;28;20082;-75
2022/06/24 03:23:40;;;;;;;15.73;2.80;;;;;;;;;;6189089;28;20085;-75
2022/06/24 03:26:41;;;;;;;8.88;2.55;;;;;;;;;;6185038;28;20392;-75
2022/06/24 03:29:43;;;;;;;18.65;3.13;;;;;;;;;;6180647;28;20105;-75
2022/06/24 03:32:45;;;;;;;13.65;3.42;;;;;;;;;;6183983;28;20055;-75
2022/06/24 03:35:47;;;;;;;14.68;3.35;;;;;;;;;;6184680;28;20356;-75
2022/06/24 03:38:49;;;;;;;12.40;3.03;;;;;;;;;;6163317;28;20091;-74
2022/06/24 03:41:51;;;;;;;13.45;3.15;;;;;;;;;;6164079;28;20055;-74
2022/06/24 03:44:53;;;;;;;14.52;3.20;;;;;;;;;;6158661;28;20114;-74
2022/06/24 03:47:55;;;;;;;18.75;3.40;;;;;;;;;;6169650;28;20055;-74
2022/06/24 03:50:57;;;;;;;9.32;3.17;;;;;;;;;;6181255;28;20047;-74
2022/06/24 03:54:00;;;;;;;14.98;2.95;;;;;;;;;;6182396;28;20058;-74
2022/06/24 03:57:02;;;;;;;19.10;3.72;;;;;;;;;;6182247;28;20222;-74
2022/06/24 04:00:07;;;;;;;12.63;3.13;;;;;;;;;;6182548;28;20297;-74
2022/06/24 04:03:09;;;;;;;9.43;3.00;;;;;;;;;;6185251;28;20117;-75
2022/06/24 04:06:10;;;;;;;13.82;3.35;;;;;;;;;;6181904;28;20062;-75
2022/06/24 04:09:14;;;;;;;13.05;2.95;;;;;;;;;;6185909;28;20076;-75
2022/06/24 04:12:15;;;;;;;10.10;3.65;;;;;;;;;;6183734;28;20082;-75
2022/06/24 04:15:20;;;;;;;12.90;3.05;;;;;;;;;;6181456;28;20042;-76
2022/06/24 04:18:21;;;;;;;11.85;2.90;;;;;;;;;;6178989;28;20062;-75
2022/06/24 04:21:23;;;;;;;10.60;3.08;;;;;;;;;;6176638;28;20054;-75
2022/06/24 04:24:27;;;;;;;12.10;3.47;;;;;;;;;;6184448;28;20046;-75
2022/06/24 04:27:28;;;;;;;7.93;2.38;;;;;;;;;;6184897;28;20046;-74
2022/06/24 04:30:30;;;;;;;15.27;2.83;;;;;;;;;;6186641;28;20058;-74
2022/06/24 04:33:32;;;;;;;12.93;2.92;;;;;;;;;;6184197;28;20241;-75
2022/06/24 04:36:33;;;;;;;9.07;2.75;;;;;;;;;;6183871;28;20338;-75
2022/06/24 04:39:37;;;;;;;21.60;3.65;;;;;;;;;;6180026;28;20282;-75
2022/06/24 04:42:38;;;;;;;17.63;3.22;;;;;;;;;;6185135;28;20058;-75
2022/06/24 04:45:40;;;;;;;13.32;3.05;;;;;;;;;;6182292;28;20058;-75
2022/06/24 04:48:42;;;;;;;15.15;3.72;;;;;;;;;;6183344;28;20059;-75
2022/06/24 04:51:44;;;;;;;14.57;3.10;;;;;;;;;;6185097;28;20101;-75
2022/06/24 04:54:47;;;;;;;16.63;3.95;;;;;;;;;;6184425;28;20054;-75
2022/06/24 04:57:49;;;;;;;10.90;3.00;;;;;;;;;;6178894;28;20329;-74
2022/06/24 05:00:51;;;;;;;14.23;3.35;;;;;;;;;;6181601;28;20058;-75
2022/06/24 05:03:52;;;;;;;10.20;2.90;;;;;;;;;;6180630;28;20389;-75
2022/06/24 05:06:54;;;;;;;16.23;3.65;;;;;;;;;;6181838;28;20054;-75
2022/06/24 05:09:57;;;;;;;13.10;3.20;;;;;;;;;;6181239;28;20861;-75
2022/06/24 05:12:58;;;;;;;11.38;3.08;;;;;;;;;;6184612;28;20273;-77
2022/06/24 05:16:00;;;;;;;11.82;2.80;;;;;;;;;;6182531;28;20082;-76
2022/06/24 05:19:02;;;;;;;10.00;2.88;;;;;;;;;;6178271;28;20397;-76
2022/06/24 05:22:04;;;;;;;17.30;3.28;;;;;;;;;;6181028;28;20050;-77
2022/06/24 05:25:08;;;;;;;13.13;3.95;;;;;;;;;;6179304;28;20043;-74
2022/06/24 05:28:10;;;;;;;13.35;3.40;;;;;;;;;;6184670;28;20102;-74
2022/06/24 05:31:11;;;;;;;12.63;3.63;;;;;;;;;;6184267;28;20062;-75
2022/06/24 05:34:13;;;;;;;13.57;3.13;;;;;;;;;;6182214;28;20050;-75
2022/06/24 05:37:15;;;;;;;15.25;2.90;;;;;;;;;;6180815;28;20082;-74
2022/06/24 05:40:18;;;;;;;19.13;3.78;;;;;;;;;;6183153;28;20055;-75
2022/06/24 05:43:20;;;;;;;12.27;3.35;;;;;;;;;;6185366;28;20046;-76
2022/06/24 05:46:21;;;;;;;13.43;3.40;;;;;;;;;;6183707;28;20050;-75
2022/06/24 05:49:23;;;;;;;7.00;2.80;;;;;;;;;;6174717;28;20055;-74
2022/06/24 05:55:42;;;;;;;13.75;3.72;;;;;;;;;;6180937;28;20260;-77
2022/06/24 05:58:44;;;;;;;18.42;3.95;;;;;;;;;;6179992;28;20043;-75
2022/06/24 06:01:45;;;;;;;15.68;4.72;;;;;;;;;;6154815;28;20061;-75
2022/06/24 06:04:47;;;;;;;15.07;3.55;;;;;;;;;;6158748;28;20357;-75
2022/06/24 06:07:49;;;;;;;13.50;4.07;;;;;;;;;;6161245;28;20161;-75
2022/06/24 06:10:52;;;;;;;14.38;3.78;;;;;;;;;;6154734;28;20094;-75
2022/06/24 06:13:55;;;;;;;14.45;3.88;;;;;;;;;;6168592;28;20106;-74
2022/06/24 06:16:56;;;;;;;;;;;;;;;;;;6161672;28;20319;-74
2022/06/24 06:19:58;;;;;;;15.55;4.65;;;;;;;;;;6185238;28;19921;-76
2022/06/24 06:23:00;;;;;;;16.33;4.68;;;;;;;;;;6185136;28;20114;-74
2022/06/24 06:26:06;;;;;;;17.17;4.40;;;;;;;;;;6184397;28;20110;-74
2022/06/24 06:29:07;;;;;;;10.77;3.92;;;;;;;;;;6186897;28;20058;-73
2022/06/24 06:32:09;;;;;;;15.60;3.92;;;;;;;;;;6187360;28;20053;-74
2022/06/24 06:35:11;;;;;;;15.48;4.15;;;;;;;;;;6186090;28;20046;-74
2022/06/24 06:38:13;;;;;;;14.48;3.72;;;;;;;;;;6178329;28;20047;-76
2022/06/24 06:41:17;;;;;;;13.23;3.67;;;;;;;;;;6188115;28;20086;-76
2022/06/24 06:44:19;;;;;;;14.70;3.50;;;;;;;;;;6188801;28;20050;-73
2022/06/24 06:47:21;;;;;;;11.60;3.20;;;;;;;;;;6184779;28;20163;-76
2022/06/24 06:50:23;;;;;;;14.95;3.17;;;;;;;;;;6183087;28;20047;-74
2022/06/24 06:53:25;;;;;;;6.57;2.55;;;;;;;;;;6189331;28;20042;-76
2022/06/24 06:56:28;;;;;;;11.70;3.33;;;;;;;;;;6182402;28;20050;-76
2022/06/24 06:59:30;;;;;;;12.65;3.45;;;;;;;;;;6179658;28;20113;-73
2022/06/24 07:02:31;;;;;;;11.35;3.28;;;;;;;;;;6182077;28;20054;-74
2022/06/24 07:05:33;;;;;;;14.82;2.92;;;;;;;;;;6181723;28;20047;-76
2022/06/24 07:08:35;;;;;;;9.52;2.70;;;;;;;;;;6185190;28;20066;-76
2022/06/24 07:11:38;;;;;;;12.25;3.10;;;;;;;;;;6184171;28;20339;-76
2022/06/24 07:14:40;;;;;;;12.80;2.65;;;;;;;;;;6186198;28;20058;-76
2022/06/24 07:17:42;;;;;;;11.38;2.83;;;;;;;;;;6182845;28;20062;-76
2022/06/24 07:20:44;;;;;;;13.18;3.00;;;;;;;;;;6181884;28;20057;-75
2022/06/24 07:23:46;;;;;;;16.63;3.40;;;;;;;;;;6183914;28;20070;-76
2022/06/24 07:26:49;;;;;;;8.85;3.05;;;;;;;;;;6177298;28;20293;-77
2022/06/24 07:29:50;;;;;;;8.90;2.78;;;;;;;;;;6183859;28;20065;-75
2022/06/24 07:32:52;;;;;;;9.02;2.70;;;;;;;;;;6181056;28;20058;-75
2022/06/24 07:35:54;;;;;;;12.73;2.80;;;;;;;;;;6182108;28;20383;-76
2022/06/24 07:38:55;;;;;;;12.52;3.47;;;;;;;;;;6185699;28;20109;-76
2022/06/24 07:41:58;;;;;;;11.32;3.15;;;;;;;;;;6183992;28;20058;-76
2022/06/24 07:45:00;;;;;;;;;;;;;;;;;;6180623;28;20038;-76
2022/06/24 07:48:02;;;;;;;9.00;3.10;;;;;;;;;;6182649;28;19984;-75
2022/06/24 07:51:11;;;;;;;14.00;3.55;;;;;;;;;;6184856;28;20283;-74
2022/06/24 07:54:13;;;;;;;18.15;3.30;;;;;;;;;;6181245;28;20090;-75
2022/06/24 07:57:15;;;;;;;14.07;3.60;;;;;;;;;;6182494;28;20050;-74
2022/06/24 08:00:17;;;;;;;9.98;2.92;;;;;;;;;;6178487;28;20055;-77
2022/06/24 08:03:19;;;;;;;10.77;2.55;;;;;;;;;;6184653;28;20050;-77
2022/06/24 08:06:21;;;;;;;10.48;3.72;;;;;;;;;;6183054;28;20050;-76
2022/06/24 08:09:25;;;;;;;10.05;2.53;;;;;;;;;;6180404;28;20074;-76
2022/06/24 08:12:28;;;;;;;10.57;3.20;;;;;;;;;;6181230;28;20050;-76
2022/06/24 08:15:30;;;;;;;11.68;3.00;;;;;;;;;;6182044;28;20047;-77
2022/06/24 08:18:31;;;;;;;11.55;3.08;;;;;;;;;;6178074;28;20215;-76
2022/06/24 08:21:33;;;;;;;11.23;2.92;;;;;;;;;;6182519;28;20085;-75
2022/06/24 08:24:35;;;;;;;16.77;3.65;;;;;;;;;;6178600;28;20046;-76
2022/06/24 08:27:38;;;;;;;15.13;3.55;;;;;;;;;;6183087;28;20050;-77
2022/06/24 08:30:40;;;;;;;12.95;2.70;;;;;;;;;;6182063;28;20047;-77
2022/06/24 08:33:41;;;;;;;6.20;2.05;;;;;;;;;;6184360;28;20058;-77
2022/06/24 08:36:43;;;;;;;12.85;2.95;;;;;;;;;;6183065;28;20070;-77
2022/06/24 08:39:44;;;;;;;13.57;3.25;;;;;;;;;;6182168;28;20058;-75
2022/06/24 08:42:52;;;;;;;9.30;2.80;;;;;;;;;;6185174;28;20062;-77
2022/06/24 08:45:54;;;;;;;12.20;2.90;;;;;;;;;;6183036;28;20051;-77
2022/06/24 08:48:58;;;;;;;10.48;2.55;;;;;;;;;;6182979;28;20062;-77
2022/06/24 08:52:01;;;;;;;11.77;2.80;;;;;;;;;;6180216;28;20059;-77
2022/06/24 08:55:03;;;;;;;;;;;;;;;;;;6186052;28;20053;-78
2022/06/24 08:58:11;;;;;;;12.00;2.70;;;;;;;;;;6182347;28;20105;-77
2022/06/24 09:01:15;;;;;;;9.13;2.72;;;;;;;;;;6179807;28;20097;-77
2022/06/24 09:04:17;;;;;;;10.45;2.40;;;;;;;;;;6179224;28;20250;-77
2022/06/24 09:07:24;;;;;;;10.82;2.63;;;;;;;;;;6180759;28;20053;-76
2022/06/24 09:10:26;;;;;;;11.90;3.40;;;;;;;;;;6184692;28;20384;-77
2022/06/24 09:13:29;;;;;;;14.80;3.60;;;;;;;;;;6181086;28;20262;-77
2022/06/24 09:16:32;;;;;;;11.32;3.10;;;;;;;;;;6180904;28;20059;-77
2022/06/24 09:19:33;;;;;;;10.55;3.42;;;;;;;;;;6176884;28;20063;-77
2022/06/24 09:22:35;;;;;;;10.50;3.08;;;;;;;;;;6184487;28;20053;-78
2022/06/24 09:25:44;;;;;;;13.73;3.43;;;;;;;;;;6179692;28;20058;-76
2022/06/24 09:28:48;;;;;;;12.98;3.53;;;;;;;;;;6183154;28;20059;-76
2022/06/24 09:31:50;;;;;;;10.88;2.45;;;;;;;;;;6183085;28;20062;-76
2022/06/24 09:35:05;;;;;;;13.05;2.58;;;;;;;;;;6185782;28;20257;-76
2022/06/24 09:38:07;;;;;;;12.00;2.70;;;;;;;;;;6180945;28;20289;-76
2022/06/24 09:41:09;;;;;;;12.80;3.20;;;;;;;;;;6182911;28;20050;-76
2022/06/24 09:44:12;;;;;;;12.10;2.72;;;;;;;;;;6180070;28;20329;-78
2022/06/24 09:47:14;;;;;;;8.05;2.80;;;;;;;;;;6181554;28;20054;-77
2022/06/24 09:50:16;;;;;;;7.88;2.50;;;;;;;;;;6182215;28;20089;-75
2022/06/24 09:53:19;;;;;;;9.77;2.90;;;;;;;;;;6184496;28;20051;-77
2022/06/24 09:56:21;;;;;;;7.55;2.50;;;;;;;;;;6188517;28;20070;-76
2022/06/24 10:02:44;;;;;;;10.93;3.10;;;;;;;;;;6185042;28;20042;-76
2022/06/24 10:05:47;;;;;;;12.23;3.33;;;;;;;;;;6185740;28;20055;-78
2022/06/24 10:08:49;;;;;;;;;;;;;;;;;;6186156;28;20101;-76
2022/06/24 10:11:52;;;;;;;15.65;3.00;;;;;;;;;;6185716;28;20205;-77
2022/06/24 10:14:57;;;;;;;11.30;2.72;;;;;;;;;;6186062;28;20050;-77
2022/06/24 10:18:00;;;;;;;8.27;2.58;;;;;;;;;;6182311;28;20042;-77
2022/06/24 10:21:02;;;;;;;;;;;;;;;;;;6183965;28;20127;-75
2022/06/24 10:24:12;;;;;;;8.20;2.53;;;;;;;;;;6185123;28;19956;-76
2022/06/24 10:27:13;;;;;;;9.80;2.60;;;;;;;;;;6186082;28;20231;-78
2022/06/24 10:30:36;;;;;;;9.57;2.73;;;;;;;;;;6186125;28;20051;-77
2022/06/24 10:33:38;;;;;;;10.15;2.72;;;;;;;;;;6182888;28;20490;-76
2022/06/24 10:36:40;;;;;;;8.65;2.63;;;;;;;;;;6184744;28;20230;-77
2022/06/24 10:39:46;;;;;;;8.53;2.33;;;;;;;;;;6185817;28;20238;-77
2022/06/24 10:43:06;;;;;;;9.20;2.50;;;;;;;;;;6186989;28;20109;-77
2022/06/24 10:46:26;;;;;;;12.55;2.60;;;;;;;;;;6186866;28;20058;-78
2022/06/24 10:50:06;;;;;;;9.35;2.65;;;;;;;;;;6184698;28;20043;-75
2022/06/24 10:53:08;;;;;;;9.68;2.60;;;;;;;;;;6186213;28;20145;-77
2022/06/24 10:56:10;;;;;;;11.17;3.03;;;;;;;;;;6183685;28;20351;-77
2022/06/24 10:59:12;;;;;;;8.02;2.80;;;;;;;;;;6175202;28;20316;-77
2022/06/24 11:02:19;;;;;;;10.77;2.83;;;;;;;;;;6175285;28;20330;-77
2022/06/24 11:05:24;;;;;;;9.00;2.38;;;;;;;;;;6184677;28;20101;-76
2022/06/24 11:08:26;;;;;;;14.10;2.92;;;;;;;;;;6186002;28;20054;-75
2022/06/24 11:11:28;;;;;;;12.40;2.92;;;;;;;;;;6184925;28;20042;-78
2022/06/24 11:14:30;;;;;;;8.43;2.50;;;;;;;;;;6182358;28;20066;-77
2022/06/24 11:17:40;;;;;;;12.13;2.65;;;;;;;;;;6179329;28;20057;-75
2022/06/24 11:20:44;;;;;;;8.43;2.60;;;;;;;;;;6186133;28;20058;-75
2022/06/24 11:23:47;;;;;;;12.57;2.55;;;;;;;;;;6182006;28;20211;-77
2022/06/24 11:27:05;;;;;;;8.40;2.33;;;;;;;;;;6184758;28;20066;-77
2022/06/24 11:30:09;;;;;;;10.05;2.40;;;;;;;;;;6179709;28;20097;-77
2022/06/24 11:33:12;;;;;;;9.38;2.75;;;;;;;;;;6185943;28;20201;-77
2022/06/24 11:36:14;;;;;;;13.93;3.55;;;;;;;;;;6184075;28;20054;-78
2022/06/24 11:39:16;;;;;;;8.65;2.63;;;;;;;;;;6183220;28;20060;-80
2022/06/24 11:42:18;;;;;;;9.02;2.15;;;;;;;;;;6183551;28;20117;-75
2022/06/24 11:45:32;;;;;;;9.10;2.30;;;;;;;;;;6183965;28;20102;-75
2022/06/24 11:48:35;;;;;;;9.35;2.58;;;;;;;;;;6181279;28;20352;-75
2022/06/24 11:51:37;;;;;;;8.93;2.22;;;;;;;;;;6185128;28;20274;-75
2022/06/24 11:54:39;;;;;;;8.30;2.50;;;;;;;;;;6185055;28;20062;-76
2022/06/24 11:57:41;;;;;;;10.77;2.50;;;;;;;;;;6184254;28;20050;-75
2022/06/24 12:00:42;;;;;;;11.23;2.97;;;;;;;;;;6183148;28;20061;-74
2022/06/24 12:03:46;;;;;;;8.88;2.88;;;;;;;;;;6184777;28;20226;-76
2022/06/24 12:06:48;;;;;;;9.35;2.92;;;;;;;;;;6186001;28;20069;-75
2022/06/24 12:09:50;;;;;;;11.57;2.73;;;;;;;;;;6181413;28;20092;-76
2022/06/24 12:13:00;;;;;;;9.30;2.58;;;;;;;;;;6182569;28;20046;-73
2022/06/24 12:16:02;;;;;;;8.93;2.72;;;;;;;;;;6175454;28;20110;-75
2022/06/24 12:19:09;;;;;;;11.63;2.70;;;;;;;;;;6180386;28;20121;-73
2022/06/24 12:22:12;;;;;;;14.05;2.63;;;;;;;;;;6183183;28;20055;-75
2022/06/24 12:25:13;;;;;;;;;;;;;;;;;;6180170;28;20360;-73
2022/06/24 12:28:19;;;;;;;7.18;2.38;;;;;;;;;;6185729;28;19925;-75
2022/06/24 12:31:20;;;;;;;8.70;2.80;;;;;;;;;;6180971;28;20053;-77
2022/06/24 12:34:27;;;;;;;7.60;2.45;;;;;;;;;;6186970;28;20101;-75
2022/06/24 12:37:29;;;;;;;11.23;2.50;;;;;;;;;;6182600;28;20054;-76
2022/06/24 12:40:31;;;;;;;9.93;2.25;;;;;;;;;;6184702;28;20053;-76
2022/06/24 12:43:32;;;;;;;12.02;2.05;;;;;;;;;;6185774;28;20059;-77
2022/06/24 12:50:34;;;;;;;;;;;;;;;;;;6182843;28;20054;-76
2022/06/24 12:53:26;;;;;;;10.15;2.20;;;;;;;;;;6180214;28;20113;-76
2022/06/24 12:56:30;;;;;;;7.70;2.08;;;;;;;;;;6181834;28;20118;-75
2022/06/24 12:59:31;;;;;;;12.35;2.38;;;;;;;;;;6184055;28;20054;-75
2022/06/24 13:02:33;;;;;;;10.13;2.67;;;;;;;;;;6180187;28;20345;-73
2022/06/24 13:05:36;;;;;;;8.27;2.22;;;;;;;;;;6180662;28;20384;-75
2022/06/24 13:08:38;;;;;;;8.23;2.10;;;;;;;;;;6182107;28;20055;-75
2022/06/24 13:11:39;;;;;;;10.80;2.35;;;;;;;;;;6185404;28;20059;-78
2022/06/24 13:14:41;;;;;;;5.75;1.88;;;;;;;;;;6179308;28;20043;-78
2022/06/24 13:17:43;;;;;;;7.82;2.20;;;;;;;;;;6182252;28;20094;-78
2022/06/24 13:20:46;;;;;;;7.43;2.35;;;;;;;;;;6178835;28;20063;-78
2022/06/24 13:23:48;;;;;;;8.93;2.05;;;;;;;;;;6182289;28;20226;-77
2022/06/24 13:26:50;;;;;;;7.05;1.70;;;;;;;;;;6180586;28;20062;-78
2022/06/24 13:29:52;;;;;;;7.43;2.00;;;;;;;;;;6186234;28;20050;-77
2022/06/24 13:32:53;;;;;;;7.93;1.98;;;;;;;;;;6183197;28;20050;-75
2022/06/24 13:35:56;;;;;;;12.45;2.58;;;;;;;;;;6188889;28;20046;-77
2022/06/24 13:38:58;;;;;;;7.28;2.28;;;;;;;;;;6186669;28;20055;-75
2022/06/24 13:42:00;;;;;;;8.35;2.22;;;;;;;;;;6174182;28;20349;-76
2022/06/24 13:45:02;;;;;;;11.13;2.65;;;;;;;;;;6165278;28;20047;-76
2022/06/24 13:48:06;;;;;;;18.95;2.53;;;;;;;;;;6163942;28;20047;-73
2022/06/24 13:51:09;;;;;;;24.83;2.65;;;;;;;;;;6163528;28;20090;-72
2022/06/24 13:54:11;;;;;;;15.57;1.95;;;;;;;;;;6161321;28;20055;-71
2022/06/24 13:57:13;;;;;;;11.55;1.77;;;;;;;;;;6161913;28;20047;-72
2022/06/24 14:00:15;;;;;;;10.38;1.50;;;;;;;;;;6162331;28;20061;-73
2022/06/24 14:03:17;;;;;;;3.85;1.15;;;;;;;;;;6163058;28;20055;-73
2022/06/24 14:06:20;;;;;;;5.72;1.45;;;;;;;;;;6175166;28;20058;-74
2022/06/24 14:09:22;;;;;;;4.63;1.45;;;;;;;;;;6181765;28;20047;-74
2022/06/24 14:12:23;;;;;;;9.38;5.00;;;;;;;;;;6186419;28;20050;-74
2022/06/24 14:15:25;;;;;;;3.40;1.23;;;;;;;;;;6184369;28;20055;-73
2022/06/24 14:18:27;;;;;;;2.03;0.95;;;;;;;;;;6181940;28;20064;-74
2022/06/24 14:21:30;;;;;;;4.72;1.20;;;;;;;;;;6186242;28;20050;-74
2022/06/24 14:24:33;;;;;;;15.18;6.20;;;;;;;;;;6183217;28;20051;-74
2022/06/24 14:27:35;;;;;;;3.42;1.10;;;;;;;;;;6183341;28;20073;-74
2022/06/24 14:30:38;;;;;;;4.43;1.30;;;;;;;;;;6181850;28;20055;-73
2022/06/24 14:33:39;;;;;;;3.90;1.38;;;;;;;;;;6189658;28;20967;-74
2022/06/24 14:36:42;;;;;;;5.65;3.03;;;;;;;;;;6184677;28;20081;-74
2022/06/24 14:43:04;;;;;;;5.32;2.13;;;;;;;;;;6179940;28;20051;-74
2022/06/24 14:46:06;;;;;;;4.60;1.40;;;;;;;;;;6189222;28;20097;-74
2022/06/24 14:49:07;;;;;;;3.90;1.30;;;;;;;;;;6186361;28;20086;-73
2022/06/24 14:52:10;;;;;;;2.35;1.35;;;;;;;;;;6182643;28;20182;-75
2022/06/24 14:55:12;;;;;;;7.72;3.42;;;;;;;;;;6185299;28;20051;-77
2022/06/24 14:58:14;;;;;;;2.88;1.85;;;;;;;;;;6183499;28;20081;-80
2022/06/24 15:01:15;;;;;;;5.05;1.88;;;;;;;;;;6182950;28;20093;-74
2022/06/24 15:04:17;;;;;;;1.50;1.00;;;;;;;;;;6182377;28;20051;-75
2022/06/24 15:07:20;;;;;;;4.95;1.27;;;;;;;;;;6184585;28;20043;-75
2022/06/24 15:10:22;;;;;;;3.17;1.13;;;;;;;;;;6185308;28;20050;-75
2022/06/24 15:13:24;;;;;;;3.78;0.95;;;;;;;;;;6185913;28;20053;-75
2022/06/24 15:16:25;;;;;;;3.25;1.45;;;;;;;;;;6165679;28;20078;-75
2022/06/24 15:19:27;;;;;;;2.33;1.17;;;;;;;;;;6157095;28;20102;-76
2022/06/24 15:22:30;;;;;;;5.25;1.40;;;;;;;;;;6154414;28;20333;-75
2022/06/24 15:25:31;;;;;;;3.17;1.42;;;;;;;;;;6160429;28;20094;-74
2022/06/24 15:28:33;;;;;;;3.50;1.20;;;;;;;;;;6157899;28;20066;-75
2022/06/24 15:31:36;;;;;;;3.67;1.40;;;;;;;;;;6159010;28;20051;-75
2022/06/24 15:34:38;;;;;;;;;;;;;;;;;;6157165;28;20086;-75
2022/06/24 15:37:41;;;;;;;1.92;1.17;;;;;;;;;;6158477;28;20287;-75
2022/06/24 15:40:43;;;;;;;3.88;1.42;;;;;;;;;;6157768;28;20055;-75
2022/06/24 15:43:45;;;;;;;3.47;1.42;;;;;;;;;;6158245;28;20109;-75
2022/06/24 15:46:46;;;;;;;4.78;1.42;;;;;;;;;;6160474;28;20051;-75
2022/06/24 15:49:48;;;;;;;4.85;1.33;;;;;;;;;;6160343;28;20067;-75
2022/06/24 15:52:52;;;;;;;7.25;1.40;;;;;;;;;;6158198;28;20056;-75
2022/06/24 15:55:54;;;;;;;4.90;1.50;;;;;;;;;;6149612;28;20242;-75
2022/06/24 15:58:56;;;;;;;3.75;1.20;;;;;;;;;;6158717;28;20048;-75
2022/06/24 16:01:57;;;;;;;6.45;1.65;;;;;;;;;;6185824;28;20707;-75
2022/06/24 16:04:59;;;;;;;3.50;1.40;;;;;;;;;;6182064;28;20117;-75
2022/06/24 16:08:02;;;;;;;3.60;1.60;;;;;;;;;;6184756;28;20113;-75
2022/06/24 16:11:04;;;;;;;6.05;1.45;;;;;;;;;;6183696;28;20346;-75
2022/06/24 16:14:05;;;;;;;4.65;1.30;;;;;;;;;;6184207;28;20072;-76
2022/06/24 16:17:08;;;;;;;5.25;1.70;;;;;;;;;;6177854;28;20090;-80
2022/06/24 16:20:10;;;;;;;5.80;1.60;;;;;;;;;;6184263;28;20057;-81
2022/06/24 16:23:14;;;;;;;6.97;2.20;;;;;;;;;;6180035;28;20186;-80
2022/06/24 16:29:35;;;;;;;9.65;3.05;;;;;;;;;;6183492;28;19922;-80
2022/06/24 16:32:36;;;;;;;5.32;1.52;;;;;;;;;;6185505;28;20325;-83
2022/06/24 16:35:40;;;;;;;3.97;1.42;;;;;;;;;;6177904;28;20241;-76
2022/06/24 16:38:45;;;;;;;6.10;2.35;;;;;;;;;;6182847;28;20054;-77
2022/06/24 16:41:47;;;;;;;2.92;1.67;;;;;;;;;;6179577;28;20121;-76
2022/06/24 16:44:49;;;;;;;3.92;1.50;;;;;;;;;;6182285;28;20118;-75
2022/06/24 16:47:50;;;;;;;5.90;1.80;;;;;;;;;;6183914;28;20100;-76
2022/06/24 16:50:52;;;;;;;4.65;1.40;;;;;;;;;;6176084;28;20135;-75
2022/06/24 16:53:55;;;;;;;5.82;1.48;;;;;;;;;;6175064;28;20085;-75
2022/06/24 16:56:57;;;;;;;4.93;1.65;;;;;;;;;;6175681;28;20070;-75
2022/06/24 16:59:59;;;;;;;4.97;1.52;;;;;;;;;;6156629;28;20151;-75
2022/06/24 17:03:01;;;;;;;5.78;1.80;;;;;;;;;;6175005;28;20054;-75
2022/06/24 17:06:04;;;;;;;3.58;1.50;;;;;;;;;;6178599;28;20330;-76
2022/06/24 17:09:08;;;;;;;4.25;1.67;;;;;;;;;;6177975;28;20049;-75
2022/06/24 17:12:09;;;;;;;3.00;1.50;;;;;;;;;;6180750;28;20054;-75
2022/06/24 17:15:11;;;;;;;5.53;1.60;;;;;;;;;;6181190;28;20053;-75
2022/06/24 17:18:13;;;;;;;8.50;2.00;;;;;;;;;;6175001;28;20046;-75
2022/06/24 17:21:14;;;;;;;5.45;1.80;;;;;;;;;;6182022;28;20055;-75
2022/06/24 17:24:18;;;;;;;4.45;1.50;;;;;;;;;;6175080;28;20050;-75
2022/06/24 17:27:20;;;;;;;4.38;1.55;;;;;;;;;;6179123;28;20122;-76
2022/06/24 17:30:21;;;;;;;4.35;1.60;;;;;;;;;;6173705;28;20062;-75
2022/06/24 17:33:23;;;;;;;4.55;1.50;;;;;;;;;;6174457;28;20047;-75
2022/06/24 17:36:24;;;;;;;4.38;1.50;;;;;;;;;;6183445;28;20051;-75
2022/06/24 17:39:28;;;;;;;6.22;1.40;;;;;;;;;;6181092;28;20201;-75
2022/06/24 17:42:29;;;;;;;;;;;;;;;;;;6181635;28;20055;-75
2022/06/24 17:45:31;;;;;;;19.38;13.25;;;;;;;;;;6181134;28;19925;-75
2022/06/24 17:48:33;;;;;;;20.02;14.73;;;;;;;;;;6180882;28;20050;-75
2022/06/24 17:51:35;;;;;;;12.40;6.43;;;;;;;;;;6180356;28;20046;-75
2022/06/24 17:54:38;;;;;;;13.02;9.80;;;;;;;;;;6182758;28;20104;-76
2022/06/24 17:57:39;;;;;;;10.65;3.95;;;;;;;;;;6181919;28;20190;-77
2022/06/24 18:00:41;;;;;;;10.20;2.00;;;;;;;;;;6181417;28;20059;-76
2022/06/24 18:03:42;;;;;;;5.38;2.15;;;;;;;;;;6181490;28;20063;-77
2022/06/24 18:06:44;;;;;;;4.05;1.73;;;;;;;;;;6177892;28;20050;-77
2022/06/24 18:09:47;;;;;;;7.00;3.00;;;;;;;;;;6182156;28;20330;-77
2022/06/24 18:12:49;;;;;;;5.28;1.95;;;;;;;;;;6180720;28;20059;-77
2022/06/24 18:15:51;;;;;;;4.70;1.47;;;;;;;;;;6182670;28;20114;-76
2022/06/24 18:18:53;;;;;;;6.53;2.03;;;;;;;;;;6184167;28;20449;-78
2022/06/24 18:21:55;;;;;;;5.32;1.40;;;;;;;;;;6191292;28;20054;-78
2022/06/24 18:24:58;;;;;;;7.07;1.92;;;;;;;;;;6183074;28;20054;-77
2022/06/24 18:27:59;;;;;;;11.75;1.85;;;;;;;;;;6185510;28;20047;-77
2022/06/24 18:31:01;;;;;;;2.83;1.70;;;;;;;;;;6178100;28;20338;-78